sensor_id;sensor_type;location;lat;lon;timestamp;pressure;altitude;pressure_sealevel;temperature;humidity
5905;BME280;2978;42.012;24.880;2022-07-23T00:00:56;98841.69;;;25.58;44.86
5905;BME280;2978;42.012;24.880;2022-07-23T00:03:21;98837.53;;;25.52;44.96
5905;BME280;2978;42.012;24.880;2022-07-23T00:05:47;98840.13;;;25.42;45.43
5905;BME280;2978;42.012;24.880;2022-07-23T00:08:12;98831.97;;;25.37;45.36
5905;BME280;2978;42.012;24.880;2022-07-23T00:10:38;98826.63;;;25.32;45.57
5905;BME280;2978;42.012;24.880;2022-07-23T00:13:04;98849.88;;;25.29;45.53
5905;BME280;2978;42.012;24.880;2022-07-23T00:15:29;98841.00;;;25.27;44.97
5905;BME280;2978;42.012;24.880;2022-07-23T00:17:55;98840.09;;;25.23;45.77
5905;BME280;2978;42.012;24.880;2022-07-23T00:20:20;98836.84;;;25.21;45.60
5905;BME280;2978;42.012;24.880;2022-07-23T00:22:51;98844.09;;;25.22;45.43
5905;BME280;2978;42.012;24.880;2022-07-23T00:25:18;98836.84;;;25.21;45.47
5905;BME280;2978;42.012;24.880;2022-07-23T00:27:44;98818.16;;;25.13;45.41
5905;BME280;2978;42.012;24.880;2022-07-23T00:30:10;98831.66;;;25.23;45.13
5905;BME280;2978;42.012;24.880;2022-07-23T00:32:50;98838.47;;;25.22;45.07
5905;BME280;2978;42.012;24.880;2022-07-23T00:35:19;98833.59;;;25.19;45.39
5905;BME280;2978;42.012;24.880;2022-07-23T00:37:45;98846.38;;;25.16;45.39
5905;BME280;2978;42.012;24.880;2022-07-23T00:40:11;98826.44;;;25.06;45.55
5905;BME280;2978;42.012;24.880;2022-07-23T00:42:36;98830.75;;;25.00;45.72
5905;BME280;2978;42.012;24.880;2022-07-23T00:45:03;98830.59;;;24.93;46.14
5905;BME280;2978;42.012;24.880;2022-07-23T00:47:28;98833.78;;;24.91;45.89
5905;BME280;2978;42.012;24.880;2022-07-23T00:49:54;98846.72;;;24.96;45.77
5905;BME280;2978;42.012;24.880;2022-07-23T00:52:19;98846.00;;;24.99;45.57
5905;BME280;2978;42.012;24.880;2022-07-23T00:54:45;98841.41;;;24.91;45.88
5905;BME280;2978;42.012;24.880;2022-07-23T00:57:10;98847.31;;;24.86;45.59
5905;BME280;2978;42.012;24.880;2022-07-23T00:59:38;98843.00;;;24.92;46.13
5905;BME280;2978;42.012;24.880;2022-07-23T01:02:04;98856.63;;;24.90;45.71
5905;BME280;2978;42.012;24.880;2022-07-23T01:04:29;98855.91;;;24.93;45.37
5905;BME280;2978;42.012;24.880;2022-07-23T01:06:55;98852.13;;;24.85;45.60
5905;BME280;2978;42.012;24.880;2022-07-23T01:09:20;98855.00;;;24.89;45.66
5905;BME280;2978;42.012;24.880;2022-07-23T01:11:46;98863.00;;;24.87;45.60
5905;BME280;2978;42.012;24.880;2022-07-23T01:14:14;98856.22;;;24.88;45.61
5905;BME280;2978;42.012;24.880;2022-07-23T01:16:41;98857.50;;;24.75;45.84
5905;BME280;2978;42.012;24.880;2022-07-23T01:19:07;98859.84;;;24.73;45.76
5905;BME280;2978;42.012;24.880;2022-07-23T01:21:39;98860.59;;;24.70;46.06
5905;BME280;2978;42.012;24.880;2022-07-23T01:24:05;98858.94;;;24.69;46.29
5905;BME280;2978;42.012;24.880;2022-07-23T01:26:31;98851.94;;;24.63;46.42
5905;BME280;2978;42.012;24.880;2022-07-23T01:28:56;98848.97;;;24.56;46.20
5905;BME280;2978;42.012;24.880;2022-07-23T01:31:22;98849.69;;;24.52;46.25
5905;BME280;2978;42.012;24.880;2022-07-23T01:33:48;98847.63;;;24.49;46.44
5905;BME280;2978;42.012;24.880;2022-07-23T01:36:14;98842.88;;;24.53;46.28
5905;BME280;2978;42.012;24.880;2022-07-23T01:38:39;98852.16;;;24.54;45.84
5905;BME280;2978;42.012;24.880;2022-07-23T01:41:05;98848.44;;;24.50;45.88
5905;BME280;2978;42.012;24.880;2022-07-23T01:43:30;98832.00;;;24.52;45.89
5905;BME280;2978;42.012;24.880;2022-07-23T01:45:56;98845.69;;;24.53;45.83
5905;BME280;2978;42.012;24.880;2022-07-23T01:48:21;98844.09;;;24.52;45.40
5905;BME280;2978;42.012;24.880;2022-07-23T01:50:47;98854.69;;;24.59;45.80
5905;BME280;2978;42.012;24.880;2022-07-23T01:53:13;98849.69;;;24.52;45.93
5905;BME280;2978;42.012;24.880;2022-07-23T01:55:39;98848.88;;;24.52;45.74
5905;BME280;2978;42.012;24.880;2022-07-23T01:58:04;98862.13;;;24.51;46.04
5905;BME280;2978;42.012;24.880;2022-07-23T02:00:31;98847.09;;;24.44;45.79
5905;BME280;2978;42.012;24.880;2022-07-23T02:02:56;98844.97;;;24.41;45.43
5905;BME280;2978;42.012;24.880;2022-07-23T02:05:24;98859.22;;;24.32;45.97
5905;BME280;2978;42.012;24.880;2022-07-23T02:07:50;98857.06;;;24.26;46.35
5905;BME280;2978;42.012;24.880;2022-07-23T02:10:15;98845.53;;;24.15;46.63
5905;BME280;2978;42.012;24.880;2022-07-23T02:12:41;98858.44;;;24.16;46.62
5905;BME280;2978;42.012;24.880;2022-07-23T02:15:07;98865.47;;;24.10;46.81
5905;BME280;2978;42.012;24.880;2022-07-23T02:17:33;98868.47;;;24.02;46.99
5905;BME280;2978;42.012;24.880;2022-07-23T02:19:58;98860.28;;;23.97;47.56
5905;BME280;2978;42.012;24.880;2022-07-23T02:22:23;98860.88;;;23.90;47.18
5905;BME280;2978;42.012;24.880;2022-07-23T02:24:49;98866.25;;;23.95;47.11
5905;BME280;2978;42.012;24.880;2022-07-23T02:27:14;98857.94;;;23.99;47.11
5905;BME280;2978;42.012;24.880;2022-07-23T02:29:40;98855.34;;;23.94;47.16
5905;BME280;2978;42.012;24.880;2022-07-23T02:32:05;98858.84;;;24.03;46.86
5905;BME280;2978;42.012;24.880;2022-07-23T02:34:31;98843.56;;;24.00;46.80
5905;BME280;2978;42.012;24.880;2022-07-23T02:36:56;98865.28;;;24.03;46.63
5905;BME280;2978;42.012;24.880;2022-07-23T02:39:22;98862.94;;;24.05;46.83
5905;BME280;2978;42.012;24.880;2022-07-23T02:41:47;98861.28;;;24.04;46.68
5905;BME280;2978;42.012;24.880;2022-07-23T02:44:12;98857.84;;;23.95;46.71
5905;BME280;2978;42.012;24.880;2022-07-23T02:46:38;98867.50;;;23.98;46.57
5905;BME280;2978;42.012;24.880;2022-07-23T02:49:03;98866.69;;;23.97;46.59
5905;BME280;2978;42.012;24.880;2022-07-23T02:51:30;98854.38;;;23.86;46.97
5905;BME280;2978;42.012;24.880;2022-07-23T02:53:56;98856.81;;;23.88;47.02
5905;BME280;2978;42.012;24.880;2022-07-23T02:56:21;98854.47;;;23.90;46.54
5905;BME280;2978;42.012;24.880;2022-07-23T02:58:47;98867.41;;;23.94;46.32
5905;BME280;2978;42.012;24.880;2022-07-23T03:01:12;98872.13;;;23.90;46.91
5905;BME280;2978;42.012;24.880;2022-07-23T03:03:38;98873.56;;;23.84;46.99
5905;BME280;2978;42.012;24.880;2022-07-23T03:06:03;98867.50;;;23.82;46.72
5905;BME280;2978;42.012;24.880;2022-07-23T03:08:29;98853.72;;;23.77;47.09
5905;BME280;2978;42.012;24.880;2022-07-23T03:10:54;98870.81;;;23.72;46.96
5905;BME280;2978;42.012;24.880;2022-07-23T03:13:20;98869.63;;;23.73;47.04
5905;BME280;2978;42.012;24.880;2022-07-23T03:15:45;98881.13;;;23.68;47.40
5905;BME280;2978;42.012;24.880;2022-07-23T03:18:10;98866.44;;;23.59;47.74
5905;BME280;2978;42.012;24.880;2022-07-23T03:20:36;98858.09;;;23.63;47.25
5905;BME280;2978;42.012;24.880;2022-07-23T03:23:01;98875.53;;;23.68;46.94
5905;BME280;2978;42.012;24.880;2022-07-23T03:25:27;98878.06;;;23.73;47.24
5905;BME280;2978;42.012;24.880;2022-07-23T03:27:52;98875.00;;;23.78;46.93
5905;BME280;2978;42.012;24.880;2022-07-23T03:30:18;98886.84;;;23.72;46.91
5905;BME280;2978;42.012;24.880;2022-07-23T03:32:43;98884.78;;;23.69;46.90
5905;BME280;2978;42.012;24.880;2022-07-23T03:35:09;98866.63;;;23.66;47.23
5905;BME280;2978;42.012;24.880;2022-07-23T03:37:35;98872.34;;;23.70;46.89
5905;BME280;2978;42.012;24.880;2022-07-23T03:40:00;98868.97;;;23.64;47.07
5905;BME280;2978;42.012;24.880;2022-07-23T03:42:27;98878.59;;;23.63;47.42
5905;BME280;2978;42.012;24.880;2022-07-23T03:44:52;98874.78;;;23.71;46.79
5905;BME280;2978;42.012;24.880;2022-07-23T03:47:18;98870.81;;;23.72;46.92
5905;BME280;2978;42.012;24.880;2022-07-23T03:49:47;98870.47;;;23.74;46.46
5905;BME280;2978;42.012;24.880;2022-07-23T03:52:12;98869.63;;;23.73;47.14
5905;BME280;2978;42.012;24.880;2022-07-23T03:54:38;98853.16;;;23.72;46.67
5905;BME280;2978;42.012;24.880;2022-07-23T03:57:03;98873.47;;;23.81;46.62
5905;BME280;2978;42.012;24.880;2022-07-23T03:59:29;98876.75;;;23.83;46.65
5905;BME280;2978;42.012;24.880;2022-07-23T04:01:54;98858.00;;;23.87;46.55
5905;BME280;2978;42.012;24.880;2022-07-23T04:04:19;98867.94;;;23.84;46.99
5905;BME280;2978;42.012;24.880;2022-07-23T04:06:45;98859.00;;;23.94;46.27
5905;BME280;2978;42.012;24.880;2022-07-23T04:09:11;98877.72;;;24.02;46.17
5905;BME280;2978;42.012;24.880;2022-07-23T04:11:36;98870.09;;;24.18;45.43
5905;BME280;2978;42.012;24.880;2022-07-23T04:14:02;98864.66;;;24.25;45.74
5905;BME280;2978;42.012;24.880;2022-07-23T04:16:28;98884.25;;;24.37;45.43
5905;BME280;2978;42.012;24.880;2022-07-23T04:18:54;98877.63;;;24.45;45.12
5905;BME280;2978;42.012;24.880;2022-07-23T04:21:19;98878.09;;;24.47;44.76
5905;BME280;2978;42.012;24.880;2022-07-23T04:23:45;98887.50;;;24.86;44.26
5905;BME280;2978;42.012;24.880;2022-07-23T04:26:10;98882.81;;;25.63;41.85
5905;BME280;2978;42.012;24.880;2022-07-23T04:28:36;98874.13;;;26.10;41.23
5905;BME280;2978;42.012;24.880;2022-07-23T04:31:01;98898.63;;;26.51;40.36
5905;BME280;2978;42.012;24.880;2022-07-23T04:33:27;98894.59;;;26.75;40.20
5905;BME280;2978;42.012;24.880;2022-07-23T04:35:52;98887.44;;;27.07;39.16
5905;BME280;2978;42.012;24.880;2022-07-23T04:38:18;98894.41;;;27.39;38.60
5905;BME280;2978;42.012;24.880;2022-07-23T04:40:43;98886.44;;;27.48;38.07
5905;BME280;2978;42.012;24.880;2022-07-23T04:43:09;98885.53;;;27.70;37.61
5905;BME280;2978;42.012;24.880;2022-07-23T04:45:34;98894.59;;;27.53;38.21
5905;BME280;2978;42.012;24.880;2022-07-23T04:47:59;98896.06;;;27.73;37.81
5905;BME280;2978;42.012;24.880;2022-07-23T04:50:26;98887.16;;;27.71;37.83
5905;BME280;2978;42.012;24.880;2022-07-23T04:52:51;98897.00;;;27.84;37.47
5905;BME280;2978;42.012;24.880;2022-07-23T04:55:17;98898.97;;;28.13;37.15
5905;BME280;2978;42.012;24.880;2022-07-23T04:57:42;98895.53;;;28.34;36.31
5905;BME280;2978;42.012;24.880;2022-07-23T05:00:09;98897.69;;;28.47;36.39
5905;BME280;2978;42.012;24.880;2022-07-23T05:02:35;98898.88;;;28.43;36.25
5905;BME280;2978;42.012;24.880;2022-07-23T05:05:01;98901.72;;;28.46;36.59
5905;BME280;2978;42.012;24.880;2022-07-23T05:07:26;98917.16;;;28.12;37.53
5905;BME280;2978;42.012;24.880;2022-07-23T05:09:51;98909.50;;;28.53;36.72
5905;BME280;2978;42.012;24.880;2022-07-23T05:12:17;98900.31;;;28.66;36.33
5905;BME280;2978;42.012;24.880;2022-07-23T05:14:42;98889.47;;;28.75;36.25
5905;BME280;2978;42.012;24.880;2022-07-23T05:17:08;98897.22;;;28.86;35.64
5905;BME280;2978;42.012;24.880;2022-07-23T05:19:34;98884.81;;;28.97;35.47
5905;BME280;2978;42.012;24.880;2022-07-23T05:22:00;98885.13;;;28.85;36.21
5905;BME280;2978;42.012;24.880;2022-07-23T05:24:25;98890.41;;;28.90;35.54
5905;BME280;2978;42.012;24.880;2022-07-23T05:26:51;98890.44;;;28.94;36.06
5905;BME280;2978;42.012;24.880;2022-07-23T05:29:17;98885.72;;;29.12;35.62
5905;BME280;2978;42.012;24.880;2022-07-23T05:31:42;98881.31;;;29.18;35.61
5905;BME280;2978;42.012;24.880;2022-07-23T05:34:07;98882.16;;;29.22;35.47
5905;BME280;2978;42.012;24.880;2022-07-23T05:36:33;98885.19;;;28.96;35.79
5905;BME280;2978;42.012;24.880;2022-07-23T05:38:59;98878.41;;;28.56;36.84
5905;BME280;2978;42.012;24.880;2022-07-23T05:41:24;98879.84;;;28.84;35.96
5905;BME280;2978;42.012;24.880;2022-07-23T05:43:50;98873.03;;;28.92;36.18
5905;BME280;2978;42.012;24.880;2022-07-23T05:46:15;98877.06;;;28.91;36.14
5905;BME280;2978;42.012;24.880;2022-07-23T05:48:41;98870.56;;;28.87;36.42
5905;BME280;2978;42.012;24.880;2022-07-23T05:51:08;98863.63;;;28.80;36.69
5905;BME280;2978;42.012;24.880;2022-07-23T05:53:34;98863.63;;;28.80;36.69
5905;BME280;2978;42.012;24.880;2022-07-23T05:56:00;98869.78;;;28.90;36.21
5905;BME280;2978;42.012;24.880;2022-07-23T05:58:26;98880.16;;;28.71;37.10
5905;BME280;2978;42.012;24.880;2022-07-23T06:00:52;98881.03;;;28.83;36.76
5905;BME280;2978;42.012;24.880;2022-07-23T06:03:17;98879.97;;;28.98;36.72
5905;BME280;2978;42.012;24.880;2022-07-23T06:05:43;98872.16;;;29.42;36.34
5905;BME280;2978;42.012;24.880;2022-07-23T06:08:08;98868.69;;;29.80;35.45
5905;BME280;2978;42.012;24.880;2022-07-23T06:10:34;98880.09;;;30.01;35.17
5905;BME280;2978;42.012;24.880;2022-07-23T06:12:59;98870.88;;;30.25;34.87
5905;BME280;2978;42.012;24.880;2022-07-23T06:15:25;98876.16;;;30.34;34.51
5905;BME280;2978;42.012;24.880;2022-07-23T06:17:50;98885.88;;;30.36;34.86
5905;BME280;2978;42.012;24.880;2022-07-23T06:20:16;98882.25;;;30.57;34.45
5905;BME280;2978;42.012;24.880;2022-07-23T06:22:41;98889.16;;;30.45;34.35
5905;BME280;2978;42.012;24.880;2022-07-23T06:25:07;98879.00;;;30.44;34.71
5905;BME280;2978;42.012;24.880;2022-07-23T06:27:33;98882.66;;;30.59;34.73
5905;BME280;2978;42.012;24.880;2022-07-23T06:29:58;98889.97;;;30.70;34.16
5905;BME280;2978;42.012;24.880;2022-07-23T06:32:24;98889.19;;;30.84;34.25
5905;BME280;2978;42.012;24.880;2022-07-23T06:34:49;98886.75;;;30.75;34.33
5905;BME280;2978;42.012;24.880;2022-07-23T06:37:15;98888.38;;;30.87;34.44
5905;BME280;2978;42.012;24.880;2022-07-23T06:39:40;98884.31;;;30.91;34.75
5905;BME280;2978;42.012;24.880;2022-07-23T06:42:06;98881.03;;;31.00;34.26
5905;BME280;2978;42.012;24.880;2022-07-23T06:44:31;98875.38;;;30.97;34.42
5905;BME280;2978;42.012;24.880;2022-07-23T06:46:57;98873.34;;;30.93;34.45
5905;BME280;2978;42.012;24.880;2022-07-23T06:49:22;98883.88;;;31.11;34.28
5905;BME280;2978;42.012;24.880;2022-07-23T06:51:47;98877.81;;;31.09;34.67
5905;BME280;2978;42.012;24.880;2022-07-23T06:54:13;98884.25;;;31.23;34.10
5905;BME280;2978;42.012;24.880;2022-07-23T06:56:38;98878.56;;;31.44;34.38
5905;BME280;2978;42.012;24.880;2022-07-23T06:59:04;98875.22;;;31.67;34.41
5905;BME280;2978;42.012;24.880;2022-07-23T07:01:29;98875.19;;;31.74;33.83
5905;BME280;2978;42.012;24.880;2022-07-23T07:03:55;98885.72;;;31.91;34.23
5905;BME280;2978;42.012;24.880;2022-07-23T07:06:20;98875.44;;;32.11;33.46
5905;BME280;2978;42.012;24.880;2022-07-23T07:08:46;98877.09;;;32.05;33.47
5905;BME280;2978;42.012;24.880;2022-07-23T07:11:11;98883.53;;;32.16;33.39
5905;BME280;2978;42.012;24.880;2022-07-23T07:13:37;98874.97;;;32.23;33.15
5905;BME280;2978;42.012;24.880;2022-07-23T07:16:03;98876.00;;;32.50;33.51
5905;BME280;2978;42.012;24.880;2022-07-23T07:18:29;98874.28;;;32.67;33.10
5905;BME280;2978;42.012;24.880;2022-07-23T07:20:54;98871.31;;;32.81;33.24
5905;BME280;2978;42.012;24.880;2022-07-23T07:23:20;98867.13;;;32.96;32.81
5905;BME280;2978;42.012;24.880;2022-07-23T07:25:46;98871.91;;;33.06;32.56
5905;BME280;2978;42.012;24.880;2022-07-23T07:28:11;98860.34;;;33.20;32.59
5905;BME280;2978;42.012;24.880;2022-07-23T07:30:37;98863.09;;;33.31;32.67
5905;BME280;2978;42.012;24.880;2022-07-23T07:33:02;98853.00;;;33.23;31.79
5905;BME280;2978;42.012;24.880;2022-07-23T07:35:28;98853.03;;;33.19;32.90
5905;BME280;2978;42.012;24.880;2022-07-23T07:37:54;98858.88;;;33.05;32.54
5905;BME280;2978;42.012;24.880;2022-07-23T07:40:19;98856.31;;;33.18;32.22
5905;BME280;2978;42.012;24.880;2022-07-23T07:42:51;98852.00;;;33.40;31.53
5905;BME280;2978;42.012;24.880;2022-07-23T07:45:17;98840.53;;;33.47;31.66
5905;BME280;2978;42.012;24.880;2022-07-23T07:47:43;98845.97;;;33.68;31.56
5905;BME280;2978;42.012;24.880;2022-07-23T07:50:09;98851.03;;;33.53;30.97
5905;BME280;2978;42.012;24.880;2022-07-23T07:52:35;98832.38;;;33.49;32.08
5905;BME280;2978;42.012;24.880;2022-07-23T07:55:05;98845.03;;;33.78;31.69
5905;BME280;2978;42.012;24.880;2022-07-23T07:57:32;98843.16;;;33.98;31.30
5905;BME280;2978;42.012;24.880;2022-07-23T07:59:57;98842.97;;;34.12;31.13
5905;BME280;2978;42.012;24.880;2022-07-23T08:02:23;98842.97;;;34.12;30.47
5905;BME280;2978;42.012;24.880;2022-07-23T08:04:48;98843.06;;;34.32;30.96
5905;BME280;2978;42.012;24.880;2022-07-23T08:07:14;98841.25;;;34.45;31.20
5905;BME280;2978;42.012;24.880;2022-07-23T08:09:40;98836.53;;;34.58;30.89
5905;BME280;2978;42.012;24.880;2022-07-23T08:12:05;98838.13;;;34.62;30.81
5905;BME280;2978;42.012;24.880;2022-07-23T08:14:31;98841.22;;;34.71;30.77
5905;BME280;2978;42.012;24.880;2022-07-23T08:16:56;98840.94;;;34.85;31.50
5905;BME280;2978;42.012;24.880;2022-07-23T08:19:21;98832.09;;;34.80;31.28
5905;BME280;2978;42.012;24.880;2022-07-23T08:21:47;98836.50;;;34.84;31.15
5905;BME280;2978;42.012;24.880;2022-07-23T08:24:12;98830.94;;;35.00;31.35
5905;BME280;2978;42.012;24.880;2022-07-23T08:26:38;98836.50;;;35.07;31.26
5905;BME280;2978;42.012;24.880;2022-07-23T08:29:03;98837.81;;;35.03;30.78
5905;BME280;2978;42.012;24.880;2022-07-23T08:31:29;98835.53;;;34.91;31.07
5905;BME280;2978;42.012;24.880;2022-07-23T08:33:54;98823.66;;;34.96;31.33
5905;BME280;2978;42.012;24.880;2022-07-23T08:36:21;98836.22;;;35.02;31.04
5905;BME280;2978;42.012;24.880;2022-07-23T08:38:47;98824.19;;;35.10;30.74
5905;BME280;2978;42.012;24.880;2022-07-23T08:41:12;98821.72;;;35.12;31.47
5905;BME280;2978;42.012;24.880;2022-07-23T08:43:38;98829.34;;;35.19;30.15
5905;BME280;2978;42.012;24.880;2022-07-23T08:46:05;98823.03;;;35.28;30.30
5905;BME280;2978;42.012;24.880;2022-07-23T08:48:35;98823.91;;;35.25;30.60
5905;BME280;2978;42.012;24.880;2022-07-23T08:51:05;98818.06;;;35.32;30.77
5905;BME280;2978;42.012;24.880;2022-07-23T08:53:32;98813.22;;;35.29;29.86
5905;BME280;2978;42.012;24.880;2022-07-23T08:56:00;98811.53;;;35.31;30.20
5905;BME280;2978;42.012;24.880;2022-07-23T08:58:29;98804.88;;;35.38;30.40
5905;BME280;2978;42.012;24.880;2022-07-23T09:00:55;98799.91;;;35.42;30.04
5905;BME280;2978;42.012;24.880;2022-07-23T09:03:26;98809.03;;;35.33;29.96
5905;BME280;2978;42.012;24.880;2022-07-23T09:05:53;98802.66;;;35.26;29.34
5905;BME280;2978;42.012;24.880;2022-07-23T09:08:21;98802.13;;;35.11;29.71
5905;BME280;2978;42.012;24.880;2022-07-23T09:10:58;98785.41;;;35.09;29.35
5905;BME280;2978;42.012;24.880;2022-07-23T09:15:58;98796.22;;;35.41;30.19
5905;BME280;2978;42.012;24.880;2022-07-23T09:29:03;98786.22;;;35.30;30.04
5905;BME280;2978;42.012;24.880;2022-07-23T09:34:34;98789.88;;;35.10;29.88
5905;BME280;2978;42.012;24.880;2022-07-23T09:37:16;98791.00;;;35.36;29.68
5905;BME280;2978;42.012;24.880;2022-07-23T09:39:43;98789.56;;;35.48;28.91
5905;BME280;2978;42.012;24.880;2022-07-23T09:44:50;98787.34;;;35.55;28.59
5905;BME280;2978;42.012;24.880;2022-07-23T09:47:17;98776.94;;;35.65;28.73
5905;BME280;2978;42.012;24.880;2022-07-23T09:49:59;98781.06;;;35.80;28.46
5905;BME280;2978;42.012;24.880;2022-07-23T09:52:32;98779.38;;;36.02;27.60
5905;BME280;2978;42.012;24.880;2022-07-23T09:55:00;98771.50;;;36.06;27.78
5905;BME280;2978;42.012;24.880;2022-07-23T09:57:25;98764.00;;;36.12;27.58
5905;BME280;2978;42.012;24.880;2022-07-23T09:59:52;98778.94;;;36.03;26.46
5905;BME280;2978;42.012;24.880;2022-07-23T10:02:18;98769.81;;;36.08;25.33
5905;BME280;2978;42.012;24.880;2022-07-23T10:04:44;98774.84;;;36.20;23.52
5905;BME280;2978;42.012;24.880;2022-07-23T10:07:11;98760.88;;;36.22;24.05
5905;BME280;2978;42.012;24.880;2022-07-23T10:09:40;98767.94;;;36.18;24.63
5905;BME280;2978;42.012;24.880;2022-07-23T10:12:14;98767.94;;;36.34;24.83
5905;BME280;2978;42.012;24.880;2022-07-23T10:14:58;98760.56;;;36.37;25.06
5905;BME280;2978;42.012;24.880;2022-07-23T10:17:24;98751.50;;;36.38;24.62
5905;BME280;2978;42.012;24.880;2022-07-23T10:19:49;98748.09;;;36.43;24.68
5905;BME280;2978;42.012;24.880;2022-07-23T10:22:28;98754.38;;;36.38;24.58
5905;BME280;2978;42.012;24.880;2022-07-23T10:25:32;98752.84;;;36.50;24.93
5905;BME280;2978;42.012;24.880;2022-07-23T10:28:18;98743.78;;;36.51;24.65
5905;BME280;2978;42.012;24.880;2022-07-23T10:36:27;98742.56;;;36.52;23.37
5905;BME280;2978;42.012;24.880;2022-07-23T10:41:38;98734.63;;;36.72;23.60
5905;BME280;2978;42.012;24.880;2022-07-23T10:44:12;98739.31;;;36.82;23.32
5905;BME280;2978;42.012;24.880;2022-07-23T10:47:01;98728.25;;;36.97;22.72
5905;BME280;2978;42.012;24.880;2022-07-23T10:49:36;98731.53;;;37.11;22.39
5905;BME280;2978;42.012;24.880;2022-07-23T10:54:42;98720.88;;;37.12;22.31
5905;BME280;2978;42.012;24.880;2022-07-23T10:57:10;98721.34;;;37.23;22.49
5905;BME280;2978;42.012;24.880;2022-07-23T11:02:33;98717.53;;;37.13;21.92
5905;BME280;2978;42.012;24.880;2022-07-23T11:05:22;98700.69;;;37.15;21.90
5905;BME280;2978;42.012;24.880;2022-07-23T11:24:04;98689.50;;;37.34;21.75
5905;BME280;2978;42.012;24.880;2022-07-23T11:26:55;98689.16;;;37.44;21.35
5905;BME280;2978;42.012;24.880;2022-07-23T11:32:05;98691.41;;;37.78;21.25
5905;BME280;2978;42.012;24.880;2022-07-23T11:34:35;98691.53;;;37.87;20.61
5905;BME280;2978;42.012;24.880;2022-07-23T11:37:02;98676.91;;;37.69;20.71
5905;BME280;2978;42.012;24.880;2022-07-23T11:39:30;98684.25;;;37.70;20.59
5905;BME280;2978;42.012;24.880;2022-07-23T11:41:56;98684.97;;;37.74;20.74
5905;BME280;2978;42.012;24.880;2022-07-23T11:44:30;98681.19;;;37.77;21.32
5905;BME280;2978;42.012;24.880;2022-07-23T11:47:02;98680.72;;;37.66;20.74
5905;BME280;2978;42.012;24.880;2022-07-23T11:49:28;98682.41;;;37.63;20.81
5905;BME280;2978;42.012;24.880;2022-07-23T11:52:10;98677.34;;;37.55;20.46
5905;BME280;2978;42.012;24.880;2022-07-23T11:54:46;98675.97;;;37.47;20.63
5905;BME280;2978;42.012;24.880;2022-07-23T11:57:12;98668.41;;;37.53;20.38
5905;BME280;2978;42.012;24.880;2022-07-23T11:59:38;98667.25;;;37.50;20.35
5905;BME280;2978;42.012;24.880;2022-07-23T12:02:05;98679.06;;;37.40;20.00
5905;BME280;2978;42.012;24.880;2022-07-23T12:04:42;98667.13;;;37.41;20.13
5905;BME280;2978;42.012;24.880;2022-07-23T12:07:36;98666.22;;;37.44;20.08
5905;BME280;2978;42.012;24.880;2022-07-23T12:10:04;98666.44;;;37.37;20.23
5905;BME280;2978;42.012;24.880;2022-07-23T12:12:39;98665.19;;;37.38;20.62
5905;BME280;2978;42.012;24.880;2022-07-23T12:15:06;98656.13;;;37.40;20.52
5905;BME280;2978;42.012;24.880;2022-07-23T12:17:35;98664.50;;;37.47;20.20
5905;BME280;2978;42.012;24.880;2022-07-23T12:20:03;98659.22;;;37.58;20.17
5905;BME280;2978;42.012;24.880;2022-07-23T12:22:57;98652.47;;;37.64;20.44
5905;BME280;2978;42.012;24.880;2022-07-23T12:25:28;98642.50;;;37.81;20.37
5905;BME280;2978;42.012;24.880;2022-07-23T12:28:07;98641.56;;;37.97;19.68
5905;BME280;2978;42.012;24.880;2022-07-23T12:30:34;98643.13;;;38.10;19.60
5905;BME280;2978;42.012;24.880;2022-07-23T12:33:00;98643.59;;;38.09;19.22
5905;BME280;2978;42.012;24.880;2022-07-23T12:35:43;98632.69;;;38.04;19.21
5905;BME280;2978;42.012;24.880;2022-07-23T12:38:20;98628.59;;;37.80;19.14
5905;BME280;2978;42.012;24.880;2022-07-23T12:45:52;98625.13;;;37.97;19.30
5905;BME280;2978;42.012;24.880;2022-07-23T12:48:26;98625.44;;;38.12;19.23
5905;BME280;2978;42.012;24.880;2022-07-23T12:53:26;98619.81;;;38.21;18.85
5905;BME280;2978;42.012;24.880;2022-07-23T12:56:04;98611.75;;;38.16;19.31
5905;BME280;2978;42.012;24.880;2022-07-23T13:01:22;98608.44;;;38.17;19.25
5905;BME280;2978;42.012;24.880;2022-07-23T13:04:16;98607.97;;;38.19;19.29
5905;BME280;2978;42.012;24.880;2022-07-23T13:06:46;98596.81;;;38.08;19.65
5905;BME280;2978;42.012;24.880;2022-07-23T13:09:16;98596.13;;;38.17;19.79
5905;BME280;2978;42.012;24.880;2022-07-23T13:11:43;98593.56;;;38.32;18.82
5905;BME280;2978;42.012;24.880;2022-07-23T13:14:11;98586.09;;;38.34;18.92
5905;BME280;2978;42.012;24.880;2022-07-23T13:16:37;98591.31;;;38.48;19.74
5905;BME280;2978;42.012;24.880;2022-07-23T13:19:03;98580.22;;;38.59;19.56
5905;BME280;2978;42.012;24.880;2022-07-23T13:21:28;98585.06;;;38.62;19.73
5905;BME280;2978;42.012;24.880;2022-07-23T13:23:55;98584.81;;;38.69;18.94
5905;BME280;2978;42.012;24.880;2022-07-23T13:26:21;98582.53;;;38.64;19.49
5905;BME280;2978;42.012;24.880;2022-07-23T13:28:46;98588.00;;;38.71;19.41
5905;BME280;2978;42.012;24.880;2022-07-23T13:31:12;98581.00;;;38.72;18.80
5905;BME280;2978;42.012;24.880;2022-07-23T13:33:38;98581.63;;;38.67;18.62
5905;BME280;2978;42.012;24.880;2022-07-23T13:36:04;98582.88;;;38.66;18.35
5905;BME280;2978;42.012;24.880;2022-07-23T13:38:30;98583.81;;;38.63;18.81
5905;BME280;2978;42.012;24.880;2022-07-23T13:40:55;98578.88;;;38.64;18.69
5905;BME280;2978;42.012;24.880;2022-07-23T13:43:23;98581.44;;;38.49;18.70
5905;BME280;2978;42.012;24.880;2022-07-23T13:45:49;98576.28;;;38.44;18.79
5905;BME280;2978;42.012;24.880;2022-07-23T13:48:17;98576.63;;;38.46;18.67
5905;BME280;2978;42.012;24.880;2022-07-23T13:50:44;98581.69;;;38.42;18.37
5905;BME280;2978;42.012;24.880;2022-07-23T13:53:12;98582.38;;;38.46;18.81
5905;BME280;2978;42.012;24.880;2022-07-23T13:55:39;98580.22;;;38.38;18.47
5905;BME280;2978;42.012;24.880;2022-07-23T13:58:06;98571.78;;;38.43;19.06
5905;BME280;2978;42.012;24.880;2022-07-23T14:00:34;98581.91;;;38.48;18.57
5905;BME280;2978;42.012;24.880;2022-07-23T14:03:00;98570.63;;;38.53;18.35
5905;BME280;2978;42.012;24.880;2022-07-23T14:05:26;98575.44;;;38.56;18.56
5905;BME280;2978;42.012;24.880;2022-07-23T14:07:52;98570.13;;;38.67;18.69
5905;BME280;2978;42.012;24.880;2022-07-23T14:10:20;98568.63;;;38.84;18.97
5905;BME280;2978;42.012;24.880;2022-07-23T14:12:47;98568.41;;;39.00;18.80